Time;durP1;ratioP1;P1;durP2;ratioP2;P2;SDS_P1;SDS_P2;PMS_P1;PMS_P2;Temp;Humidity;BMP_temperature;BMP_pressure;BME280_temperature;BME280_humidity;BME280_pressure;Samples;Min_cycle;Max_cycle;Signal;HPM_P1;HPM_P2
2023/10/24 00:02:19;;;;;;;;;;;;;;;;;;112600;210;38678;-43
2023/10/24 00:04:55;;;;;;;;;;;;;;;;;;112515;210;40740;-42
2023/10/24 00:07:31;;;;;;;;;;;;;;;;;;112578;210;42634;-43
2023/10/24 00:10:07;;;;;;;;;;;;;;;;;;112559;210;41597;-44
2023/10/24 00:12:39;;;;;;;;;;;;;;;;;;112566;210;38685;-43
2023/10/24 00:15:15;;;;;;;;;;;;;;;;;;112498;210;39606;-43
2023/10/24 00:17:49;;;;;;;;;;;;;;;;;;112378;210;43952;-43
2023/10/24 00:20:22;;;;;;;;;;;;;;;;;;112548;210;41737;-43
2023/10/24 00:22:57;;;;;;;;;;;;;;;;;;112537;210;40029;-44
2023/10/24 00:25:35;;;;;;;;;;;;;;;;;;112517;210;39586;-43
2023/10/24 00:28:13;;;;;;;;;;;;;;;;;;112526;210;44390;-43
2023/10/24 00:30:52;;;;;;;;;;;;;;;;;;112546;210;43280;-44
2023/10/24 00:33:28;;;;;;;;;;;;;;;;;;112577;210;38745;-42
2023/10/24 00:36:03;;;;;;;;;;;;;;;;;;112507;210;39552;-43
2023/10/24 00:38:39;;;;;;;;;;;;;;;;;;112525;210;42512;-44
2023/10/24 00:41:19;;;;;;;;;;;;;;;;;;112515;210;41610;-44
2023/10/24 00:43:54;;;;;;;;;;;;;;;;;;112541;210;38665;-43
2023/10/24 00:46:29;;;;;;;;;;;;;;;;;;112513;210;39689;-43
2023/10/24 00:49:06;;;;;;;;;;;;;;;;;;112557;210;42785;-43
2023/10/24 00:51:41;;;;;;;;;;;;;;;;;;112583;210;42399;-43
2023/10/24 00:54:14;;;;;;;;;;;;;;;;;;112560;210;38897;-43
2023/10/24 00:56:50;;;;;;;;;;;;;;;;;;112508;210;39313;-44
2023/10/24 00:59:28;;;;;;;;;;;;;;;;;;112559;210;42806;-43
2023/10/24 01:02:06;;;;;;;;;;;;;;;;;;112547;210;41689;-44
2023/10/24 01:04:45;;;;;;;;;;;;;;;;;;112557;210;38694;-43
2023/10/24 01:07:20;;;;;;;;;;;;;;;;;;112518;210;39301;-43
2023/10/24 01:09:58;;;;;;;;;;;;;;;;;;112588;210;42771;-43
2023/10/24 01:12:34;;;;;;;;;;;;;;;;;;112557;210;41612;-44
2023/10/24 01:15:11;;;;;;;;;;;;;;;;;;112526;210;38491;-43
2023/10/24 01:17:55;;;;;;;;;;;;;;;;;;112495;210;40730;-43
2023/10/24 01:20:32;;;;;;;;;;;;;;;;;;112555;210;42584;-43
2023/10/24 01:23:08;;;;;;;;;;;;;;;;;;112585;210;41673;-43
2023/10/24 01:25:48;;;;;;;;;;;;;;;;;;112462;210;175654;-43
2023/10/24 01:28:24;;;;;;;;;;;;;;;;;;112474;210;39307;-42
2023/10/24 01:30:58;;;;;;;;;;;;;;;;;;112554;210;42798;-43
2023/10/24 01:33:32;;;;;;;;;;;;;;;;;;112538;210;41616;-43
2023/10/24 01:36:04;;;;;;;;;;;;;;;;;;112585;210;38470;-45
2023/10/24 01:38:37;;;;;;;;;;;;;;;;;;112544;210;39262;-43
2023/10/24 01:41:09;;;;;;;;;;;;;;;;;;112546;210;42736;-42
2023/10/24 01:43:51;;;;;;;;;;;;;;;;;;112596;210;41726;-44
2023/10/24 01:46:25;;;;;;;;;;;;;;;;;;112586;210;38855;-43
2023/10/24 01:49:01;;;;;;;;;;;;;;;;;;112521;210;45414;-43
2023/10/24 01:51:36;;;;;;;;;;;;;;;;;;112548;210;42626;-43
2023/10/24 01:54:11;;;;;;;;;;;;;;;;;;112565;210;41372;-44
2023/10/24 01:56:46;;;;;;;;;;;;;;;;;;112601;210;38659;-43
2023/10/24 01:59:22;;;;;;;;;;;;;;;;;;112528;210;45419;-44
2023/10/24 02:01:55;;;;;;;;;;;;;;;;;;112544;210;42920;-42
2023/10/24 02:04:31;;;;;;;;;;;;;;;;;;112580;210;41566;-43
2023/10/24 02:07:11;;;;;;;;;;;;;;;;;;112567;210;38916;-42
2023/10/24 02:09:48;;;;;;;;;;;;;;;;;;112532;210;46779;-44
2023/10/24 02:12:26;;;;;;;;;;;;;;;;;;112535;210;42915;-43
2023/10/24 02:15:00;;;;;;;;;;;;;;;;;;112588;210;42089;-44
2023/10/24 02:17:33;;;;;;;;;;;;;;;;;;112553;210;38804;-44
2023/10/24 02:20:13;;;;;;;;;;;;;;;;;;112560;210;39779;-42
2023/10/24 02:22:54;;;;;;;;;;;;;;;;;;112572;210;42746;-43
2023/10/24 02:25:33;;;;;;;;;;;;;;;;;;112571;210;41623;-42
2023/10/24 02:28:09;;;;;;;;;;;;;;;;;;112523;210;39717;-44
2023/10/24 02:30:44;;;;;;;;;;;;;;;;;;112561;210;39425;-42
2023/10/24 02:33:29;;;;;;;;;;;;;;;;;;112558;210;42516;-42
2023/10/24 02:36:18;;;;;;;;;;;;;;;;;;112534;210;41653;-44
2023/10/24 02:38:51;;;;;;;;;;;;;;;;;;112521;210;39893;-45
2023/10/24 02:41:28;;;;;;;;;;;;;;;;;;112549;210;39262;-43
2023/10/24 02:44:05;;;;;;;;;;;;;;;;;;112546;210;42687;-44
2023/10/24 02:46:42;;;;;;;;;;;;;;;;;;112538;210;41960;-47
2023/10/24 02:49:27;;;;;;;;;;;;;;;;;;112019;210;647098;-43
2023/10/24 02:52:04;;;;;;;;;;;;;;;;;;112563;210;40762;-45
2023/10/24 02:54:42;;;;;;;;;;;;;;;;;;112543;210;42741;-43
2023/10/24 02:57:17;;;;;;;;;;;;;;;;;;112568;210;43164;-44
2023/10/24 02:59:52;;;;;;;;;;;;;;;;;;112399;211;38441;-42
2023/10/24 03:02:25;;;;;;;;;;;;;;;;;;112401;210;39544;-46
2023/10/24 03:05:02;;;;;;;;;;;;;;;;;;112476;210;42692;-43
2023/10/24 03:07:41;;;;;;;;;;;;;;;;;;112477;210;41436;-42
2023/10/24 03:10:17;;;;;;;;;;;;;;;;;;112448;210;38432;-44
2023/10/24 03:12:54;;;;;;;;;;;;;;;;;;112486;210;39756;-43
2023/10/24 03:15:29;;;;;;;;;;;;;;;;;;112445;210;42542;-43
2023/10/24 03:18:08;;;;;;;;;;;;;;;;;;112448;210;41702;-43
2023/10/24 03:20:46;;;;;;;;;;;;;;;;;;112469;210;38641;-44
2023/10/24 03:23:20;;;;;;;;;;;;;;;;;;112472;210;39334;-46
2023/10/24 03:25:57;;;;;;;;;;;;;;;;;;112443;210;43294;-44
2023/10/24 03:28:30;;;;;;;;;;;;;;;;;;112475;210;41834;-45
2023/10/24 03:31:06;;;;;;;;;;;;;;;;;;112424;210;38606;-44
2023/10/24 03:33:41;;;;;;;;;;;;;;;;;;112448;210;38604;-45
2023/10/24 03:36:21;;;;;;;;;;;;;;;;;;112459;211;42823;-41
2023/10/24 03:38:56;;;;;;;;;;;;;;;;;;112481;211;41604;-41
2023/10/24 03:41:30;;;;;;;;;;;;;;;;;;112401;210;38950;-40
2023/10/24 03:44:05;;;;;;;;;;;;;;;;;;112400;210;39866;-41
2023/10/24 03:46:45;;;;;;;;;;;;;;;;;;112482;211;43073;-41
2023/10/24 03:49:20;;;;;;;;;;;;;;;;;;112464;211;41828;-41
2023/10/24 03:51:57;;;;;;;;;;;;;;;;;;112479;210;44970;-40
2023/10/24 03:54:31;;;;;;;;;;;;;;;;;;112322;210;175667;-42
2023/10/24 03:57:05;;;;;;;;;;;;;;;;;;112500;210;43127;-42
2023/10/24 03:59:39;;;;;;;;;;;;;;;;;;112513;210;41440;-43
2023/10/24 04:02:13;;;;;;;;;;;;;;;;;;111900;210;894988;-43
2023/10/24 04:04:47;;;;;;;;;;;;;;;;;;112571;210;41036;-43
2023/10/24 04:07:22;;;;;;;;;;;;;;;;;;112561;210;42798;-42
2023/10/24 04:09:56;;;;;;;;;;;;;;;;;;112525;210;41794;-43
2023/10/24 04:12:28;;;;;;;;;;;;;;;;;;112567;210;45404;-43
2023/10/24 04:15:03;;;;;;;;;;;;;;;;;;112545;210;39502;-44
2023/10/24 04:17:38;;;;;;;;;;;;;;;;;;112572;210;43015;-43
2023/10/24 04:20:16;;;;;;;;;;;;;;;;;;112507;210;42000;-43
2023/10/24 04:22:55;;;;;;;;;;;;;;;;;;112570;210;44809;-42
2023/10/24 04:25:32;;;;;;;;;;;;;;;;;;112557;210;40004;-43
2023/10/24 04:28:06;;;;;;;;;;;;;;;;;;112556;210;42900;-46
2023/10/24 04:30:46;;;;;;;;;;;;;;;;;;112541;210;41608;-42
2023/10/24 04:33:20;;;;;;;;;;;;;;;;;;112566;210;38720;-44
2023/10/24 04:35:55;;;;;;;;;;;;;;;;;;112565;210;39368;-42
2023/10/24 04:38:35;;;;;;;;;;;;;;;;;;112550;210;42762;-42
2023/10/24 04:41:11;;;;;;;;;;;;;;;;;;112528;210;41626;-46
2023/10/24 04:43:51;;;;;;;;;;;;;;;;;;112560;210;39737;-43
2023/10/24 04:46:28;;;;;;;;;;;;;;;;;;112581;210;39719;-45
2023/10/24 04:49:03;;;;;;;;;;;;;;;;;;112574;210;42826;-43
2023/10/24 04:51:36;;;;;;;;;;;;;;;;;;112506;210;41403;-44
2023/10/24 04:54:14;;;;;;;;;;;;;;;;;;112590;210;38451;-43
2023/10/24 04:56:49;;;;;;;;;;;;;;;;;;112534;210;39414;-44
2023/10/24 04:59:27;;;;;;;;;;;;;;;;;;112556;210;42547;-44
2023/10/24 05:02:03;;;;;;;;;;;;;;;;;;112487;210;41655;-43
2023/10/24 05:04:38;;;;;;;;;;;;;;;;;;112596;210;38757;-43
2023/10/24 05:07:13;;;;;;;;;;;;;;;;;;112559;210;39835;-42
2023/10/24 05:09:49;;;;;;;;;;;;;;;;;;112578;210;42853;-43
2023/10/24 05:12:23;;;;;;;;;;;;;;;;;;112535;210;41664;-43
2023/10/24 05:15:01;;;;;;;;;;;;;;;;;;111893;210;895321;-43
2023/10/24 05:17:38;;;;;;;;;;;;;;;;;;112555;210;39303;-42
2023/10/24 05:20:17;;;;;;;;;;;;;;;;;;112587;210;43057;-43
2023/10/24 05:22:51;;;;;;;;;;;;;;;;;;112492;210;41529;-43
2023/10/24 05:25:27;;;;;;;;;;;;;;;;;;112552;210;38470;-44
2023/10/24 05:28:02;;;;;;;;;;;;;;;;;;112558;210;39689;-42
2023/10/24 05:30:35;;;;;;;;;;;;;;;;;;112550;210;42572;-43
2023/10/24 05:33:12;;;;;;;;;;;;;;;;;;112464;210;41445;-43
2023/10/24 05:35:53;;;;;;;;;;;;;;;;;;112559;210;39097;-43
2023/10/24 05:38:28;;;;;;;;;;;;;;;;;;112519;210;39712;-43
2023/10/24 05:41:03;;;;;;;;;;;;;;;;;;112492;210;42765;-42
2023/10/24 05:43:39;;;;;;;;;;;;;;;;;;112389;210;43047;-43
2023/10/24 05:46:12;;;;;;;;;;;;;;;;;;112564;210;38817;-46
2023/10/24 05:48:47;;;;;;;;;;;;;;;;;;112565;210;39396;-42
2023/10/24 05:51:32;;;;;;;;;;;;;;;;;;112533;210;42687;-44
2023/10/24 05:54:11;;;;;;;;;;;;;;;;;;112494;210;41420;-41
2023/10/24 05:56:49;;;;;;;;;;;;;;;;;;112558;210;38773;-40
2023/10/24 05:59:26;;;;;;;;;;;;;;;;;;112520;210;39655;-40
2023/10/24 06:01:59;;;;;;;;;;;;;;;;;;112560;210;43895;-42
2023/10/24 06:04:38;;;;;;;;;;;;;;;;;;112505;210;42938;-41
2023/10/24 06:07:13;;;;;;;;;;;;;;;;;;112570;210;38725;-41
2023/10/24 06:09:52;;;;;;;;;;;;;;;;;;112580;210;39634;-40
2023/10/24 06:12:26;;;;;;;;;;;;;;;;;;112603;210;43133;-42
2023/10/24 06:15:00;;;;;;;;;;;;;;;;;;112513;210;47541;-43
2023/10/24 06:17:42;;;;;;;;;;;;;;;;;;112523;210;38522;-43
2023/10/24 06:20:20;;;;;;;;;;;;;;;;;;112558;210;40937;-43
2023/10/24 06:22:58;;;;;;;;;;;;;;;;;;112478;210;42773;-42
2023/10/24 06:25:42;;;;;;;;;;;;;;;;;;112517;210;47567;-43
2023/10/24 06:28:19;;;;;;;;;;;;;;;;;;112571;210;38802;-43
2023/10/24 06:31:04;;;;;;;;;;;;;;;;;;112565;210;41024;-43
2023/10/24 06:33:38;;;;;;;;;;;;;;;;;;112512;210;43207;-43
2023/10/24 06:36:17;;;;;;;;;;;;;;;;;;112563;210;41674;-43
2023/10/24 06:38:51;;;;;;;;;;;;;;;;;;112539;210;38519;-43
2023/10/24 06:41:28;;;;;;;;;;;;;;;;;;112457;210;192918;-43
2023/10/24 06:44:02;;;;;;;;;;;;;;;;;;112495;210;42716;-43
2023/10/24 06:46:38;;;;;;;;;;;;;;;;;;112546;210;41409;-42
2023/10/24 06:49:16;;;;;;;;;;;;;;;;;;112552;210;38595;-45
2023/10/24 06:51:56;;;;;;;;;;;;;;;;;;112544;210;39269;-42
2023/10/24 06:54:29;;;;;;;;;;;;;;;;;;112531;210;42851;-42
2023/10/24 06:57:08;;;;;;;;;;;;;;;;;;112579;210;41585;-43
2023/10/24 06:59:45;;;;;;;;;;;;;;;;;;112570;210;38688;-43
2023/10/24 07:02:23;;;;;;;;;;;;;;;;;;112553;210;39332;-43
2023/10/24 07:04:59;;;;;;;;;;;;;;;;;;112552;210;42639;-43
2023/10/24 07:07:38;;;;;;;;;;;;;;;;;;112580;210;41685;-43
2023/10/24 07:10:15;;;;;;;;;;;;;;;;;;112529;210;38655;-42
2023/10/24 07:12:54;;;;;;;;;;;;;;;;;;112555;210;39542;-42
2023/10/24 07:15:31;;;;;;;;;;;;;;;;;;112536;210;42786;-43
2023/10/24 07:18:06;;;;;;;;;;;;;;;;;;112451;210;175685;-42
2023/10/24 07:20:43;;;;;;;;;;;;;;;;;;112556;210;38900;-42
2023/10/24 07:23:18;;;;;;;;;;;;;;;;;;112544;210;39670;-44
2023/10/24 07:26:03;;;;;;;;;;;;;;;;;;112529;210;43174;-42
2023/10/24 07:28:37;;;;;;;;;;;;;;;;;;112581;210;41705;-43
2023/10/24 07:31:11;;;;;;;;;;;;;;;;;;112566;210;38873;-44
2023/10/24 07:33:46;;;;;;;;;;;;;;;;;;112581;210;39733;-42
2023/10/24 07:36:19;;;;;;;;;;;;;;;;;;112508;210;43171;-43
2023/10/24 07:38:52;;;;;;;;;;;;;;;;;;112430;210;175696;-43
2023/10/24 07:41:28;;;;;;;;;;;;;;;;;;112548;210;38855;-42
2023/10/24 07:44:05;;;;;;;;;;;;;;;;;;112562;210;39601;-42
2023/10/24 07:46:40;;;;;;;;;;;;;;;;;;112546;210;43024;-44
2023/10/24 07:49:16;;;;;;;;;;;;;;;;;;112577;210;42677;-43
2023/10/24 07:51:52;;;;;;;;;;;;;;;;;;112577;210;38701;-42
2023/10/24 07:54:23;;;;;;;;;;;;;;;;;;112535;210;39565;-42
2023/10/24 07:57:02;;;;;;;;;;;;;;;;;;112489;210;42783;-43
2023/10/24 07:59:42;;;;;;;;;;;;;;;;;;112544;210;41819;-42
2023/10/24 08:02:15;;;;;;;;;;;;;;;;;;112551;210;40309;-42
2023/10/24 08:04:51;;;;;;;;;;;;;;;;;;112545;210;39616;-43
2023/10/24 08:07:25;;;;;;;;;;;;;;;;;;112506;210;48691;-42
2023/10/24 08:10:00;;;;;;;;;;;;;;;;;;112561;210;41930;-42
2023/10/24 08:12:34;;;;;;;;;;;;;;;;;;112540;210;38855;-42
2023/10/24 08:15:12;;;;;;;;;;;;;;;;;;112557;210;39735;-42
2023/10/24 08:17:48;;;;;;;;;;;;;;;;;;112505;210;48585;-43
2023/10/24 08:20:24;;;;;;;;;;;;;;;;;;112541;210;43116;-42
2023/10/24 08:23:00;;;;;;;;;;;;;;;;;;112570;210;39982;-43
2023/10/24 08:25:36;;;;;;;;;;;;;;;;;;112525;210;40827;-42
2023/10/24 08:28:14;;;;;;;;;;;;;;;;;;112530;210;48885;-43
2023/10/24 08:30:49;;;;;;;;;;;;;;;;;;112563;210;42918;-47
2023/10/24 08:33:22;;;;;;;;;;;;;;;;;;112397;210;176009;-43
2023/10/24 08:35:58;;;;;;;;;;;;;;;;;;112522;210;40886;-43
2023/10/24 08:38:35;;;;;;;;;;;;;;;;;;112534;210;50413;-44
2023/10/24 08:41:10;;;;;;;;;;;;;;;;;;112514;210;43123;-43
2023/10/24 08:43:43;;;;;;;;;;;;;;;;;;112557;210;38704;-42
2023/10/24 08:46:17;;;;;;;;;;;;;;;;;;112491;210;39927;-42
2023/10/24 08:48:51;;;;;;;;;;;;;;;;;;112538;210;48921;-42
2023/10/24 08:51:23;;;;;;;;;;;;;;;;;;112499;210;41650;-42
2023/10/24 08:54:00;;;;;;;;;;;;;;;;;;112572;210;38711;-44
2023/10/24 08:56:35;;;;;;;;;;;;;;;;;;112497;210;39971;-44
2023/10/24 08:59:08;;;;;;;;;;;;;;;;;;112523;210;49134;-43
2023/10/24 09:01:44;;;;;;;;;;;;;;;;;;112580;210;41840;-43
2023/10/24 09:04:28;;;;;;;;;;;;;;;;;;112580;210;38526;-42
2023/10/24 09:07:02;;;;;;;;;;;;;;;;;;112521;210;39796;-45
2023/10/24 09:09:38;;;;;;;;;;;;;;;;;;112430;210;42814;-44
2023/10/24 09:12:14;;;;;;;;;;;;;;;;;;112551;210;41629;-42
2023/10/24 09:14:53;;;;;;;;;;;;;;;;;;112510;210;38722;-41
2023/10/24 09:17:31;;;;;;;;;;;;;;;;;;112479;210;39574;-44
2023/10/24 09:20:06;;;;;;;;;;;;;;;;;;112562;210;42980;-39
2023/10/24 09:22:45;;;;;;;;;;;;;;;;;;112549;210;43216;-41
2023/10/24 09:25:26;;;;;;;;;;;;;;;;;;112576;210;38419;-43
2023/10/24 09:28:17;;;;;;;;;;;;;;;;;;112500;210;39534;-43
2023/10/24 09:30:52;;;;;;;;;;;;;;;;;;112309;210;175578;-43
2023/10/24 09:33:33;;;;;;;;;;;;;;;;;;112541;210;42857;-49
2023/10/24 09:36:14;;;;;;;;;;;;;;;;;;112341;210;175606;-48
2023/10/24 09:38:50;;;;;;;;;;;;;;;;;;112371;210;39615;-48
2023/10/24 09:41:27;;;;;;;;;;;;;;;;;;112482;210;44068;-45
2023/10/24 09:44:04;;;;;;;;;;;;;;;;;;112393;210;43958;-43
2023/10/24 09:46:46;;;;;;;;;;;;;;;;;;112495;210;40030;-41
2023/10/24 09:49:27;;;;;;;;;;;;;;;;;;112429;210;39274;-40
2023/10/24 09:52:05;;;;;;;;;;;;;;;;;;112472;210;42870;-41
2023/10/24 09:54:39;;;;;;;;;;;;;;;;;;112551;210;41807;-42
2023/10/24 09:57:16;;;;;;;;;;;;;;;;;;112508;210;38733;-45
2023/10/24 09:59:57;;;;;;;;;;;;;;;;;;112406;210;41204;-42
2023/10/24 10:02:29;;;;;;;;;;;;;;;;;;112540;210;43879;-41
2023/10/24 10:05:05;;;;;;;;;;;;;;;;;;112456;209;41818;-42
2023/10/24 10:07:40;;;;;;;;;;;;;;;;;;111859;210;896812;-46
2023/10/24 10:10:15;;;;;;;;;;;;;;;;;;112348;210;39399;-37
2023/10/24 10:12:59;;;;;;;;;;;;;;;;;;112434;210;43887;-40
2023/10/24 10:15:50;;;;;;;;;;;;;;;;;;112493;210;41950;-42
2023/10/24 10:18:39;;;;;;;;;;;;;;;;;;112468;210;38491;-42
2023/10/24 10:21:24;;;;;;;;;;;;;;;;;;112566;209;39717;-44
2023/10/24 10:24:14;;;;;;;;;;;;;;;;;;112511;210;42577;-44
2023/10/24 10:27:02;;;;;;;;;;;;;;;;;;112478;210;41799;-42
2023/10/24 10:29:49;;;;;;;;;;;;;;;;;;112394;210;39868;-46
2023/10/24 10:32:30;;;;;;;;;;;;;;;;;;112458;210;39678;-45
2023/10/24 10:35:15;;;;;;;;;;;;;;;;;;112508;210;42785;-49
2023/10/24 10:40:47;;;;;;;;;;;;;;;;;;108712;243;615349;-44
2023/10/24 10:43:35;;;;;;;;;;;;;;;;;;111182;222;42791;-47
2023/10/24 10:46:26;;;;;;;;;;;;;;;;;;111075;223;41403;-42
2023/10/24 10:49:06;;;;;;;;;;;;;;;;;;111760;217;38594;-42
2023/10/24 10:51:42;;;;;;;;;;;;;;;;;;111967;217;38663;-47
2023/10/24 10:54:24;;;;;;;;;;;;;;;;;;111592;216;536108;-46
2023/10/24 10:57:06;;;;;;;;;;;;;;;;;;111878;215;42247;-39
2023/10/24 10:59:47;;;;;;;;;;;;;;;;;;111976;215;39016;-40
2023/10/24 11:02:39;;;;;;;;;;;;;;;;;;111946;215;46882;-44
2023/10/24 11:05:51;;;;;;;;;;;;;;;;;;111973;215;43122;-43
2023/10/24 11:08:36;;;;;;;;;;;;;;;;;;111930;215;41655;-45
2023/10/24 11:11:21;;;;;;;;;;;;;;;;;;111925;215;38956;-45
2023/10/24 11:13:56;;;;;;;;;;;;;;;;;;111946;215;39942;-42
2023/10/24 11:16:34;;;;;;;;;;;;;;;;;;111957;215;42908;-46
2023/10/24 11:19:21;;;;;;;;;;;;;;;;;;111970;215;41385;-44
2023/10/24 11:21:57;;;;;;;;;;;;;;;;;;111687;215;38823;-46
2023/10/24 11:24:31;;;;;;;;;;;;;;;;;;111919;215;39655;-48
2023/10/24 11:27:07;;;;;;;;;;;;;;;;;;111929;215;42822;-44
2023/10/24 11:29:45;;;;;;;;;;;;;;;;;;111978;215;41972;-45
2023/10/24 11:32:19;;;;;;;;;;;;;;;;;;111827;215;175658;-44
2023/10/24 11:34:57;;;;;;;;;;;;;;;;;;111927;215;39596;-46
2023/10/24 11:37:34;;;;;;;;;;;;;;;;;;111960;215;42661;-45
2023/10/24 11:40:11;;;;;;;;;;;;;;;;;;111960;215;41624;-45
2023/10/24 11:42:45;;;;;;;;;;;;;;;;;;111916;215;38723;-45
2023/10/24 11:45:23;;;;;;;;;;;;;;;;;;111978;215;39576;-44
2023/10/24 11:47:56;;;;;;;;;;;;;;;;;;112026;215;44109;-45
2023/10/24 11:50:45;;;;;;;;;;;;;;;;;;111944;215;41903;-46
2023/10/24 11:53:25;;;;;;;;;;;;;;;;;;112026;215;44535;-45
2023/10/24 11:56:04;;;;;;;;;;;;;;;;;;111918;215;40760;-44
2023/10/24 11:58:36;;;;;;;;;;;;;;;;;;111924;215;42837;-45
2023/10/24 12:01:13;;;;;;;;;;;;;;;;;;111943;215;41686;-47
2023/10/24 12:03:56;;;;;;;;;;;;;;;;;;111942;215;44893;-48
2023/10/24 12:06:32;;;;;;;;;;;;;;;;;;111912;215;39389;-45
2023/10/24 12:09:06;;;;;;;;;;;;;;;;;;112005;213;42771;-49
2023/10/24 12:11:38;;;;;;;;;;;;;;;;;;111949;213;41557;-47
2023/10/24 12:14:16;;;;;;;;;;;;;;;;;;112027;214;38643;-47
2023/10/24 12:16:52;;;;;;;;;;;;;;;;;;111949;214;39877;-48
2023/10/24 12:19:37;;;;;;;;;;;;;;;;;;112020;213;43821;-47
2023/10/24 12:22:18;;;;;;;;;;;;;;;;;;111908;213;42938;-45
2023/10/24 12:24:55;;;;;;;;;;;;;;;;;;111992;213;39067;-46
2023/10/24 12:27:30;;;;;;;;;;;;;;;;;;111956;213;39585;-48
2023/10/24 12:30:05;;;;;;;;;;;;;;;;;;111980;214;42833;-46
2023/10/24 12:32:40;;;;;;;;;;;;;;;;;;111925;213;41738;-47
2023/10/24 12:35:13;;;;;;;;;;;;;;;;;;112021;213;38722;-46
2023/10/24 12:37:53;;;;;;;;;;;;;;;;;;111978;213;39869;-46
2023/10/24 12:40:26;;;;;;;;;;;;;;;;;;111959;213;42719;-44
2023/10/24 12:43:03;;;;;;;;;;;;;;;;;;111908;213;43023;-45
2023/10/24 12:45:40;;;;;;;;;;;;;;;;;;112001;213;40098;-48
2023/10/24 12:48:20;;;;;;;;;;;;;;;;;;111983;213;39651;-46
2023/10/24 12:50:59;;;;;;;;;;;;;;;;;;111940;213;44256;-48
2023/10/24 12:53:35;;;;;;;;;;;;;;;;;;111893;213;41833;-48
2023/10/24 12:56:10;;;;;;;;;;;;;;;;;;111822;214;175608;-49
2023/10/24 12:58:50;;;;;;;;;;;;;;;;;;111845;214;175629;-44
2023/10/24 13:01:25;;;;;;;;;;;;;;;;;;111982;213;42746;-46
2023/10/24 13:04:01;;;;;;;;;;;;;;;;;;111958;213;41841;-47
2023/10/24 13:06:40;;;;;;;;;;;;;;;;;;111981;214;40127;-44
2023/10/24 13:09:14;;;;;;;;;;;;;;;;;;111936;214;39727;-45
2023/10/24 13:11:50;;;;;;;;;;;;;;;;;;111983;213;42743;-48
2023/10/24 13:14:28;;;;;;;;;;;;;;;;;;111936;213;41772;-47
2023/10/24 13:17:02;;;;;;;;;;;;;;;;;;111958;213;38711;-46
2023/10/24 13:19:50;;;;;;;;;;;;;;;;;;111976;213;39842;-47
2023/10/24 13:22:24;;;;;;;;;;;;;;;;;;111963;215;42866;-47
2023/10/24 13:24:57;;;;;;;;;;;;;;;;;;111970;215;42810;-48
2023/10/24 13:27:29;;;;;;;;;;;;;;;;;;111872;215;175631;-46
2023/10/24 13:30:12;;;;;;;;;;;;;;;;;;111979;215;39645;-45
2023/10/24 13:32:54;;;;;;;;;;;;;;;;;;111953;215;42575;-48
2023/10/24 13:35:28;;;;;;;;;;;;;;;;;;111908;215;47413;-45
2023/10/24 13:38:07;;;;;;;;;;;;;;;;;;111926;215;40034;-48
2023/10/24 13:40:42;;;;;;;;;;;;;;;;;;111917;215;39865;-48
2023/10/24 13:43:16;;;;;;;;;;;;;;;;;;111960;215;43921;-43
2023/10/24 13:45:57;;;;;;;;;;;;;;;;;;111952;215;41828;-44
2023/10/24 13:48:32;;;;;;;;;;;;;;;;;;111955;215;38457;-44
2023/10/24 13:51:08;;;;;;;;;;;;;;;;;;111965;214;39748;-43
2023/10/24 13:53:43;;;;;;;;;;;;;;;;;;111950;214;42943;-44
2023/10/24 13:56:22;;;;;;;;;;;;;;;;;;111937;214;41776;-43
2023/10/24 13:58:54;;;;;;;;;;;;;;;;;;111950;214;38472;-45
2023/10/24 14:01:28;;;;;;;;;;;;;;;;;;111956;214;40769;-42
2023/10/24 14:04:03;;;;;;;;;;;;;;;;;;111947;214;42750;-42
2023/10/24 14:06:39;;;;;;;;;;;;;;;;;;111958;214;41590;-41
2023/10/24 14:09:14;;;;;;;;;;;;;;;;;;112474;210;38816;-42
2023/10/24 14:11:46;;;;;;;;;;;;;;;;;;112432;210;39722;-41
2023/10/24 14:14:18;;;;;;;;;;;;;;;;;;112449;210;42691;-45
2023/10/24 14:16:50;;;;;;;;;;;;;;;;;;112397;211;41998;-42
2023/10/24 14:19:22;;;;;;;;;;;;;;;;;;112481;210;38481;-43
2023/10/24 14:21:58;;;;;;;;;;;;;;;;;;112512;210;39798;-45
2023/10/24 14:24:30;;;;;;;;;;;;;;;;;;112427;210;42874;-44
2023/10/24 14:27:04;;;;;;;;;;;;;;;;;;112416;210;41835;-43
2023/10/24 14:29:37;;;;;;;;;;;;;;;;;;112468;210;38486;-42
2023/10/24 14:32:11;;;;;;;;;;;;;;;;;;112472;211;39971;-41
2023/10/24 14:34:43;;;;;;;;;;;;;;;;;;112445;210;42459;-42
2023/10/24 14:37:16;;;;;;;;;;;;;;;;;;112441;211;43350;-44
2023/10/24 14:39:49;;;;;;;;;;;;;;;;;;112417;210;40001;-44
2023/10/24 14:42:21;;;;;;;;;;;;;;;;;;112304;210;175619;-42
2023/10/24 14:44:55;;;;;;;;;;;;;;;;;;112396;210;42751;-43
2023/10/24 14:47:28;;;;;;;;;;;;;;;;;;112403;211;41922;-42
2023/10/24 14:50:01;;;;;;;;;;;;;;;;;;112425;210;39085;-44
2023/10/24 14:52:34;;;;;;;;;;;;;;;;;;112455;210;39833;-42
2023/10/24 14:55:17;;;;;;;;;;;;;;;;;;112371;210;43425;-43
2023/10/24 14:57:52;;;;;;;;;;;;;;;;;;112424;210;41716;-43
2023/10/24 15:00:25;;;;;;;;;;;;;;;;;;112394;210;38692;-42
2023/10/24 15:02:57;;;;;;;;;;;;;;;;;;112444;210;41071;-41
2023/10/24 15:05:30;;;;;;;;;;;;;;;;;;112415;210;42826;-45
2023/10/24 15:08:03;;;;;;;;;;;;;;;;;;112416;210;41966;-41
2023/10/24 15:10:37;;;;;;;;;;;;;;;;;;112310;210;38929;-43
2023/10/24 15:13:10;;;;;;;;;;;;;;;;;;112383;211;39918;-43
2023/10/24 15:15:44;;;;;;;;;;;;;;;;;;112425;210;42917;-42
2023/10/24 15:18:21;;;;;;;;;;;;;;;;;;112430;211;41610;-45
2023/10/24 15:20:53;;;;;;;;;;;;;;;;;;112454;211;38690;-42
2023/10/24 15:23:25;;;;;;;;;;;;;;;;;;112487;210;39475;-43
2023/10/24 15:26:01;;;;;;;;;;;;;;;;;;112489;210;42576;-45
2023/10/24 15:28:35;;;;;;;;;;;;;;;;;;112438;210;42747;-43
2023/10/24 15:31:10;;;;;;;;;;;;;;;;;;112413;210;38895;-43
2023/10/24 15:33:50;;;;;;;;;;;;;;;;;;112434;210;40575;-40
2023/10/24 15:36:25;;;;;;;;;;;;;;;;;;112335;210;44018;-40
2023/10/24 15:39:00;;;;;;;;;;;;;;;;;;112415;211;42910;-42
2023/10/24 15:41:35;;;;;;;;;;;;;;;;;;112295;210;175313;-43
2023/10/24 15:44:07;;;;;;;;;;;;;;;;;;112467;211;40019;-42
2023/10/24 15:46:42;;;;;;;;;;;;;;;;;;112428;210;44053;-41
2023/10/24 15:49:19;;;;;;;;;;;;;;;;;;112421;211;41997;-42
2023/10/24 15:51:52;;;;;;;;;;;;;;;;;;112395;210;38867;-44
2023/10/24 15:54:24;;;;;;;;;;;;;;;;;;112393;211;40888;-42
2023/10/24 15:56:57;;;;;;;;;;;;;;;;;;112417;210;42717;-42
2023/10/24 15:59:32;;;;;;;;;;;;;;;;;;112441;211;42654;-43
2023/10/24 16:02:05;;;;;;;;;;;;;;;;;;112476;210;38930;-45
2023/10/24 16:04:36;;;;;;;;;;;;;;;;;;112396;210;39414;-42
2023/10/24 16:07:08;;;;;;;;;;;;;;;;;;112411;210;43138;-43
2023/10/24 16:09:46;;;;;;;;;;;;;;;;;;112439;210;41846;-42
2023/10/24 16:12:19;;;;;;;;;;;;;;;;;;112453;211;39129;-42
2023/10/24 16:14:51;;;;;;;;;;;;;;;;;;112475;211;39629;-45
2023/10/24 16:17:24;;;;;;;;;;;;;;;;;;112445;210;42723;-44
2023/10/24 16:19:57;;;;;;;;;;;;;;;;;;112436;210;41935;-44
2023/10/24 16:22:29;;;;;;;;;;;;;;;;;;112468;210;39815;-39
2023/10/24 16:25:07;;;;;;;;;;;;;;;;;;112444;210;39600;-41
2023/10/24 16:27:40;;;;;;;;;;;;;;;;;;112393;210;42807;-40
2023/10/24 16:30:15;;;;;;;;;;;;;;;;;;112428;211;41823;-41
2023/10/24 16:32:47;;;;;;;;;;;;;;;;;;112473;211;38924;-40
2023/10/24 16:35:25;;;;;;;;;;;;;;;;;;112424;210;39912;-36
2023/10/24 16:37:59;;;;;;;;;;;;;;;;;;112383;210;42910;-38
2023/10/24 16:40:32;;;;;;;;;;;;;;;;;;112332;210;42798;-36
2023/10/24 16:43:04;;;;;;;;;;;;;;;;;;112323;210;40191;-37
2023/10/24 16:45:42;;;;;;;;;;;;;;;;;;112379;210;40873;-36
2023/10/24 16:48:21;;;;;;;;;;;;;;;;;;112336;210;43995;-35
2023/10/24 16:50:55;;;;;;;;;;;;;;;;;;112424;210;41673;-35
2023/10/24 16:53:29;;;;;;;;;;;;;;;;;;112392;211;38851;-35
2023/10/24 16:56:03;;;;;;;;;;;;;;;;;;112371;211;39448;-36
2023/10/24 16:58:40;;;;;;;;;;;;;;;;;;112415;211;42471;-35
2023/10/24 17:01:13;;;;;;;;;;;;;;;;;;112421;211;41829;-36
2023/10/24 17:03:48;;;;;;;;;;;;;;;;;;112404;211;39242;-36
2023/10/24 17:06:27;;;;;;;;;;;;;;;;;;112378;211;39555;-36
2023/10/24 17:09:07;;;;;;;;;;;;;;;;;;112338;211;43987;-35
2023/10/24 17:11:43;;;;;;;;;;;;;;;;;;112329;211;175651;-36
2023/10/24 17:14:14;;;;;;;;;;;;;;;;;;112389;211;38493;-36
2023/10/24 17:16:48;;;;;;;;;;;;;;;;;;112435;211;39557;-36
2023/10/24 17:19:24;;;;;;;;;;;;;;;;;;112410;211;42693;-36
2023/10/24 17:22:00;;;;;;;;;;;;;;;;;;112409;211;42200;-36
2023/10/24 17:24:36;;;;;;;;;;;;;;;;;;112408;211;38428;-36
2023/10/24 17:27:10;;;;;;;;;;;;;;;;;;112433;211;39578;-36
2023/10/24 17:29:51;;;;;;;;;;;;;;;;;;112408;211;43084;-36
2023/10/24 17:32:24;;;;;;;;;;;;;;;;;;112406;211;41667;-35
2023/10/24 17:34:59;;;;;;;;;;;;;;;;;;112419;211;38731;-36
2023/10/24 17:37:35;;;;;;;;;;;;;;;;;;112451;211;39340;-36
2023/10/24 17:40:10;;;;;;;;;;;;;;;;;;112426;211;42562;-36
2023/10/24 17:42:44;;;;;;;;;;;;;;;;;;112454;211;41818;-36
2023/10/24 17:45:18;;;;;;;;;;;;;;;;;;112448;211;38655;-36
2023/10/24 17:47:54;;;;;;;;;;;;;;;;;;112411;211;39323;-36
2023/10/24 17:50:29;;;;;;;;;;;;;;;;;;112425;211;48400;-36